sensor_id;sensor_type;location;lat;lon;timestamp;temperature;humidity
16160;DHT22;8185;57.818;15.224;2023-09-07T00:02:01;11.50;99.90
16160;DHT22;8185;57.818;15.224;2023-09-07T00:04:28;11.50;99.90
16160;DHT22;8185;57.818;15.224;2023-09-07T00:06:55;11.40;99.90
16160;DHT22;8185;57.818;15.224;2023-09-07T00:09:24;11.40;99.90
16160;DHT22;8185;57.818;15.224;2023-09-07T00:11:52;11.40;99.90
16160;DHT22;8185;57.818;15.224;2023-09-07T00:14:19;11.40;99.90
16160;DHT22;8185;57.818;15.224;2023-09-07T00:16:46;11.40;99.90
16160;DHT22;8185;57.818;15.224;2023-09-07T00:19:13;11.40;99.90
16160;DHT22;8185;57.818;15.224;2023-09-07T00:21:41;11.30;99.90
16160;DHT22;8185;57.818;15.224;2023-09-07T00:24:08;11.30;99.90
16160;DHT22;8185;57.818;15.224;2023-09-07T00:26:37;11.40;99.90
16160;DHT22;8185;57.818;15.224;2023-09-07T00:29:04;11.40;99.90
16160;DHT22;8185;57.818;15.224;2023-09-07T00:31:32;11.40;99.90
16160;DHT22;8185;57.818;15.224;2023-09-07T00:33:59;11.40;99.90
16160;DHT22;8185;57.818;15.224;2023-09-07T00:36:26;11.40;99.90
16160;DHT22;8185;57.818;15.224;2023-09-07T00:38:54;11.30;99.90
16160;DHT22;8185;57.818;15.224;2023-09-07T00:41:21;11.30;99.90
16160;DHT22;8185;57.818;15.224;2023-09-07T00:43:50;11.20;99.90
16160;DHT22;8185;57.818;15.224;2023-09-07T00:46:17;11.10;99.90
16160;DHT22;8185;57.818;15.224;2023-09-07T00:48:44;11.10;99.90
16160;DHT22;8185;57.818;15.224;2023-09-07T00:51:11;11.00;99.90
16160;DHT22;8185;57.818;15.224;2023-09-07T00:53:38;11.00;99.90
16160;DHT22;8185;57.818;15.224;2023-09-07T00:56:07;10.90;99.90
16160;DHT22;8185;57.818;15.224;2023-09-07T00:58:34;10.90;99.90
16160;DHT22;8185;57.818;15.224;2023-09-07T01:01:03;10.80;99.90
16160;DHT22;8185;57.818;15.224;2023-09-07T01:03:30;10.80;99.90
16160;DHT22;8185;57.818;15.224;2023-09-07T01:06:02;10.80;99.90
16160;DHT22;8185;57.818;15.224;2023-09-07T01:08:35;10.80;99.90
16160;DHT22;8185;57.818;15.224;2023-09-07T01:11:13;10.80;99.90
16160;DHT22;8185;57.818;15.224;2023-09-07T01:13:41;10.70;99.90
16160;DHT22;8185;57.818;15.224;2023-09-07T01:16:10;10.70;99.90
16160;DHT22;8185;57.818;15.224;2023-09-07T01:18:38;10.70;99.90
16160;DHT22;8185;57.818;15.224;2023-09-07T01:21:06;10.80;99.90
16160;DHT22;8185;57.818;15.224;2023-09-07T01:23:36;10.90;99.90
16160;DHT22;8185;57.818;15.224;2023-09-07T01:26:05;11.10;99.90
16160;DHT22;8185;57.818;15.224;2023-09-07T01:28:32;11.10;99.90
16160;DHT22;8185;57.818;15.224;2023-09-07T01:30:59;11.00;99.90
16160;DHT22;8185;57.818;15.224;2023-09-07T01:33:27;11.00;99.90
16160;DHT22;8185;57.818;15.224;2023-09-07T01:35:54;11.10;99.90
16160;DHT22;8185;57.818;15.224;2023-09-07T01:38:22;11.10;99.90
16160;DHT22;8185;57.818;15.224;2023-09-07T01:40:50;11.10;99.90
16160;DHT22;8185;57.818;15.224;2023-09-07T01:43:17;11.10;99.90
16160;DHT22;8185;57.818;15.224;2023-09-07T01:45:45;11.00;99.90
16160;DHT22;8185;57.818;15.224;2023-09-07T01:48:15;10.90;99.90
16160;DHT22;8185;57.818;15.224;2023-09-07T01:50:42;10.70;99.90
16160;DHT22;8185;57.818;15.224;2023-09-07T01:53:10;10.60;99.90
16160;DHT22;8185;57.818;15.224;2023-09-07T01:55:37;10.60;99.90
16160;DHT22;8185;57.818;15.224;2023-09-07T01:58:05;10.50;99.90
16160;DHT22;8185;57.818;15.224;2023-09-07T02:00:37;10.50;99.90
16160;DHT22;8185;57.818;15.224;2023-09-07T02:03:04;10.50;99.90
16160;DHT22;8185;57.818;15.224;2023-09-07T02:05:32;10.50;99.90
16160;DHT22;8185;57.818;15.224;2023-09-07T02:08:00;10.40;99.90
16160;DHT22;8185;57.818;15.224;2023-09-07T02:10:27;10.40;99.90
16160;DHT22;8185;57.818;15.224;2023-09-07T02:12:54;10.50;99.90
16160;DHT22;8185;57.818;15.224;2023-09-07T02:15:24;10.50;99.90
16160;DHT22;8185;57.818;15.224;2023-09-07T02:17:51;10.40;99.90
16160;DHT22;8185;57.818;15.224;2023-09-07T02:20:18;10.40;99.90
16160;DHT22;8185;57.818;15.224;2023-09-07T02:22:45;10.40;99.90
16160;DHT22;8185;57.818;15.224;2023-09-07T02:25:13;10.30;99.90
16160;DHT22;8185;57.818;15.224;2023-09-07T02:27:40;10.40;99.90
16160;DHT22;8185;57.818;15.224;2023-09-07T02:30:08;10.40;99.90
16160;DHT22;8185;57.818;15.224;2023-09-07T02:32:36;10.40;99.90
16160;DHT22;8185;57.818;15.224;2023-09-07T02:35:04;10.40;99.90
16160;DHT22;8185;57.818;15.224;2023-09-07T02:37:31;10.50;99.90
16160;DHT22;8185;57.818;15.224;2023-09-07T02:39:59;10.50;99.90
16160;DHT22;8185;57.818;15.224;2023-09-07T02:42:26;10.70;99.90
16160;DHT22;8185;57.818;15.224;2023-09-07T02:44:53;10.50;99.90
16160;DHT22;8185;57.818;15.224;2023-09-07T02:47:20;10.40;99.90
16160;DHT22;8185;57.818;15.224;2023-09-07T02:49:49;10.40;99.90
16160;DHT22;8185;57.818;15.224;2023-09-07T02:52:17;10.30;99.90
16160;DHT22;8185;57.818;15.224;2023-09-07T02:54:44;10.40;99.90
16160;DHT22;8185;57.818;15.224;2023-09-07T02:57:11;10.40;99.90
16160;DHT22;8185;57.818;15.224;2023-09-07T02:59:38;10.50;99.90
16160;DHT22;8185;57.818;15.224;2023-09-07T03:02:05;10.50;99.90
16160;DHT22;8185;57.818;15.224;2023-09-07T03:04:33;10.60;99.90
16160;DHT22;8185;57.818;15.224;2023-09-07T03:07:02;10.70;99.90
16160;DHT22;8185;57.818;15.224;2023-09-07T03:09:29;10.70;99.90
16160;DHT22;8185;57.818;15.224;2023-09-07T03:11:56;10.90;99.90
16160;DHT22;8185;57.818;15.224;2023-09-07T03:14:23;11.00;99.90
16160;DHT22;8185;57.818;15.224;2023-09-07T03:16:51;11.10;99.90
16160;DHT22;8185;57.818;15.224;2023-09-07T03:19:20;11.20;99.90
16160;DHT22;8185;57.818;15.224;2023-09-07T03:21:47;11.20;99.90
16160;DHT22;8185;57.818;15.224;2023-09-07T03:24:16;11.30;99.90
16160;DHT22;8185;57.818;15.224;2023-09-07T03:26:43;11.20;99.90
16160;DHT22;8185;57.818;15.224;2023-09-07T03:29:10;11.30;99.90
16160;DHT22;8185;57.818;15.224;2023-09-07T03:31:37;11.30;99.90
16160;DHT22;8185;57.818;15.224;2023-09-07T03:34:05;11.40;99.90
16160;DHT22;8185;57.818;15.224;2023-09-07T03:36:32;11.50;99.90
16160;DHT22;8185;57.818;15.224;2023-09-07T03:38:59;11.60;99.90
16160;DHT22;8185;57.818;15.224;2023-09-07T03:41:28;11.60;99.90
16160;DHT22;8185;57.818;15.224;2023-09-07T03:43:56;11.60;99.90
16160;DHT22;8185;57.818;15.224;2023-09-07T03:46:24;11.70;99.90
16160;DHT22;8185;57.818;15.224;2023-09-07T03:48:52;11.70;99.90
16160;DHT22;8185;57.818;15.224;2023-09-07T03:51:20;11.70;99.90
16160;DHT22;8185;57.818;15.224;2023-09-07T03:53:47;11.70;99.90
16160;DHT22;8185;57.818;15.224;2023-09-07T03:56:14;11.70;99.90
16160;DHT22;8185;57.818;15.224;2023-09-07T03:58:42;11.70;99.90
16160;DHT22;8185;57.818;15.224;2023-09-07T04:01:09;11.70;99.90
16160;DHT22;8185;57.818;15.224;2023-09-07T04:03:37;11.70;99.90
16160;DHT22;8185;57.818;15.224;2023-09-07T04:06:04;11.70;99.90
16160;DHT22;8185;57.818;15.224;2023-09-07T04:08:31;11.80;99.90
16160;DHT22;8185;57.818;15.224;2023-09-07T04:11:02;11.80;99.90
16160;DHT22;8185;57.818;15.224;2023-09-07T04:13:30;11.80;99.90
16160;DHT22;8185;57.818;15.224;2023-09-07T04:15:58;11.80;99.90
16160;DHT22;8185;57.818;15.224;2023-09-07T04:18:26;11.80;99.90
16160;DHT22;8185;57.818;15.224;2023-09-07T04:20:53;11.80;99.90
16160;DHT22;8185;57.818;15.224;2023-09-07T04:23:20;11.90;99.90
16160;DHT22;8185;57.818;15.224;2023-09-07T04:25:47;11.90;99.90
16160;DHT22;8185;57.818;15.224;2023-09-07T04:28:14;11.90;99.90
16160;DHT22;8185;57.818;15.224;2023-09-07T04:30:42;11.90;99.90
16160;DHT22;8185;57.818;15.224;2023-09-07T04:33:10;12.00;99.90
16160;DHT22;8185;57.818;15.224;2023-09-07T04:35:38;12.00;99.90
16160;DHT22;8185;57.818;15.224;2023-09-07T04:38:05;12.00;99.90
16160;DHT22;8185;57.818;15.224;2023-09-07T04:40:32;12.00;99.90
16160;DHT22;8185;57.818;15.224;2023-09-07T04:42:59;12.10;99.90
16160;DHT22;8185;57.818;15.224;2023-09-07T04:45:26;12.10;99.90
16160;DHT22;8185;57.818;15.224;2023-09-07T04:47:54;12.10;99.90
16160;DHT22;8185;57.818;15.224;2023-09-07T04:50:22;12.20;99.90
16160;DHT22;8185;57.818;15.224;2023-09-07T04:52:49;12.20;99.90
16160;DHT22;8185;57.818;15.224;2023-09-07T04:55:17;12.20;99.90
16160;DHT22;8185;57.818;15.224;2023-09-07T04:57:44;12.20;99.90
16160;DHT22;8185;57.818;15.224;2023-09-07T05:00:11;12.20;99.90
16160;DHT22;8185;57.818;15.224;2023-09-07T05:02:39;12.30;99.90
16160;DHT22;8185;57.818;15.224;2023-09-07T05:05:09;12.30;99.90
16160;DHT22;8185;57.818;15.224;2023-09-07T05:07:37;12.30;99.90
16160;DHT22;8185;57.818;15.224;2023-09-07T05:10:05;12.30;99.90
16160;DHT22;8185;57.818;15.224;2023-09-07T05:12:34;12.30;99.90
16160;DHT22;8185;57.818;15.224;2023-09-07T05:15:01;12.30;99.90
16160;DHT22;8185;57.818;15.224;2023-09-07T05:17:28;12.30;99.90
16160;DHT22;8185;57.818;15.224;2023-09-07T05:19:56;12.30;99.90
16160;DHT22;8185;57.818;15.224;2023-09-07T05:22:23;12.30;99.90
16160;DHT22;8185;57.818;15.224;2023-09-07T05:24:53;12.20;99.90
16160;DHT22;8185;57.818;15.224;2023-09-07T05:27:20;12.20;99.90
16160;DHT22;8185;57.818;15.224;2023-09-07T05:29:47;12.20;99.90
16160;DHT22;8185;57.818;15.224;2023-09-07T05:32:15;12.10;99.90
16160;DHT22;8185;57.818;15.224;2023-09-07T05:34:42;12.10;99.90
16160;DHT22;8185;57.818;15.224;2023-09-07T05:37:09;12.10;99.90
16160;DHT22;8185;57.818;15.224;2023-09-07T05:39:36;12.00;99.90
16160;DHT22;8185;57.818;15.224;2023-09-07T05:42:05;12.10;99.90
16160;DHT22;8185;57.818;15.224;2023-09-07T05:44:32;12.10;99.90
16160;DHT22;8185;57.818;15.224;2023-09-07T05:47:00;12.20;99.90
16160;DHT22;8185;57.818;15.224;2023-09-07T05:49:28;12.30;99.90
16160;DHT22;8185;57.818;15.224;2023-09-07T05:51:55;12.30;99.90
16160;DHT22;8185;57.818;15.224;2023-09-07T05:54:22;12.40;99.90
16160;DHT22;8185;57.818;15.224;2023-09-07T05:56:50;12.50;99.90
16160;DHT22;8185;57.818;15.224;2023-09-07T05:59:18;12.70;99.90
16160;DHT22;8185;57.818;15.224;2023-09-07T06:01:45;12.80;99.90
16160;DHT22;8185;57.818;15.224;2023-09-07T06:04:13;12.90;99.90
16160;DHT22;8185;57.818;15.224;2023-09-07T06:06:40;13.10;99.90
16160;DHT22;8185;57.818;15.224;2023-09-07T06:09:08;13.20;99.90
16160;DHT22;8185;57.818;15.224;2023-09-07T06:11:35;13.30;99.90
16160;DHT22;8185;57.818;15.224;2023-09-07T06:14:02;13.40;99.90
16160;DHT22;8185;57.818;15.224;2023-09-07T06:16:31;13.50;99.90
16160;DHT22;8185;57.818;15.224;2023-09-07T06:18:58;13.60;99.90
16160;DHT22;8185;57.818;15.224;2023-09-07T06:21:25;13.60;99.90
16160;DHT22;8185;57.818;15.224;2023-09-07T06:23:53;13.60;99.90
16160;DHT22;8185;57.818;15.224;2023-09-07T06:26:21;13.70;99.90
16160;DHT22;8185;57.818;15.224;2023-09-07T06:28:48;13.70;99.90
16160;DHT22;8185;57.818;15.224;2023-09-07T06:31:15;13.70;99.90
16160;DHT22;8185;57.818;15.224;2023-09-07T06:33:44;13.80;99.90
16160;DHT22;8185;57.818;15.224;2023-09-07T06:36:11;13.90;99.90
16160;DHT22;8185;57.818;15.224;2023-09-07T06:38:38;14.00;99.90
16160;DHT22;8185;57.818;15.224;2023-09-07T06:41:05;14.10;99.90
16160;DHT22;8185;57.818;15.224;2023-09-07T06:43:33;14.20;99.90
16160;DHT22;8185;57.818;15.224;2023-09-07T06:46:05;14.20;99.90
16160;DHT22;8185;57.818;15.224;2023-09-07T06:48:33;14.30;99.90
16160;DHT22;8185;57.818;15.224;2023-09-07T06:51:05;14.40;99.90
16160;DHT22;8185;57.818;15.224;2023-09-07T06:53:34;14.50;99.90
16160;DHT22;8185;57.818;15.224;2023-09-07T06:56:02;14.60;99.90
16160;DHT22;8185;57.818;15.224;2023-09-07T06:58:30;14.70;99.90
16160;DHT22;8185;57.818;15.224;2023-09-07T07:01:00;14.90;99.90
16160;DHT22;8185;57.818;15.224;2023-09-07T07:03:29;15.10;99.90
16160;DHT22;8185;57.818;15.224;2023-09-07T07:05:56;15.20;99.90
16160;DHT22;8185;57.818;15.224;2023-09-07T07:08:25;15.30;99.90
16160;DHT22;8185;57.818;15.224;2023-09-07T07:10:53;15.40;99.90
16160;DHT22;8185;57.818;15.224;2023-09-07T07:13:20;15.40;99.90
16160;DHT22;8185;57.818;15.224;2023-09-07T07:15:48;15.50;99.90
16160;DHT22;8185;57.818;15.224;2023-09-07T07:18:15;15.50;99.90
16160;DHT22;8185;57.818;15.224;2023-09-07T07:20:43;15.60;99.90
16160;DHT22;8185;57.818;15.224;2023-09-07T07:23:11;15.70;99.90
16160;DHT22;8185;57.818;15.224;2023-09-07T07:25:39;15.70;99.90
16160;DHT22;8185;57.818;15.224;2023-09-07T07:28:07;15.70;99.90
16160;DHT22;8185;57.818;15.224;2023-09-07T07:30:37;15.70;99.90
16160;DHT22;8185;57.818;15.224;2023-09-07T07:33:06;15.80;99.90
16160;DHT22;8185;57.818;15.224;2023-09-07T07:35:34;15.90;99.90
16160;DHT22;8185;57.818;15.224;2023-09-07T07:38:02;16.00;99.90
16160;DHT22;8185;57.818;15.224;2023-09-07T07:40:29;16.10;99.90
16160;DHT22;8185;57.818;15.224;2023-09-07T07:42:58;16.10;99.90
16160;DHT22;8185;57.818;15.224;2023-09-07T07:45:25;16.20;99.90
16160;DHT22;8185;57.818;15.224;2023-09-07T07:47:53;16.30;99.90
16160;DHT22;8185;57.818;15.224;2023-09-07T07:50:20;16.40;99.90
16160;DHT22;8185;57.818;15.224;2023-09-07T07:52:47;16.50;99.90
16160;DHT22;8185;57.818;15.224;2023-09-07T07:55:14;16.50;99.90
16160;DHT22;8185;57.818;15.224;2023-09-07T07:57:42;16.60;99.90
16160;DHT22;8185;57.818;15.224;2023-09-07T08:00:11;16.70;99.90
16160;DHT22;8185;57.818;15.224;2023-09-07T08:02:39;16.70;99.90
16160;DHT22;8185;57.818;15.224;2023-09-07T08:05:06;16.70;99.90
16160;DHT22;8185;57.818;15.224;2023-09-07T08:07:33;16.90;99.90
16160;DHT22;8185;57.818;15.224;2023-09-07T08:10:00;16.80;99.90
16160;DHT22;8185;57.818;15.224;2023-09-07T08:12:29;16.80;99.90
16160;DHT22;8185;57.818;15.224;2023-09-07T08:14:56;16.90;99.90
16160;DHT22;8185;57.818;15.224;2023-09-07T08:17:25;16.90;99.90
16160;DHT22;8185;57.818;15.224;2023-09-07T08:19:52;16.90;99.90
16160;DHT22;8185;57.818;15.224;2023-09-07T08:22:22;17.10;99.90
16160;DHT22;8185;57.818;15.224;2023-09-07T08:24:49;17.20;99.90
16160;DHT22;8185;57.818;15.224;2023-09-07T08:27:18;17.30;99.90
16160;DHT22;8185;57.818;15.224;2023-09-07T08:29:45;17.30;99.90
16160;DHT22;8185;57.818;15.224;2023-09-07T08:32:17;17.40;99.90
16160;DHT22;8185;57.818;15.224;2023-09-07T08:34:45;17.60;99.90
16160;DHT22;8185;57.818;15.224;2023-09-07T08:37:13;17.80;99.90
16160;DHT22;8185;57.818;15.224;2023-09-07T08:39:40;17.90;99.90
16160;DHT22;8185;57.818;15.224;2023-09-07T08:42:07;17.90;99.90
16160;DHT22;8185;57.818;15.224;2023-09-07T08:44:37;18.00;99.90
16160;DHT22;8185;57.818;15.224;2023-09-07T08:47:06;18.10;99.90
16160;DHT22;8185;57.818;15.224;2023-09-07T08:49:33;18.20;99.90
16160;DHT22;8185;57.818;15.224;2023-09-07T08:52:03;18.40;99.90
16160;DHT22;8185;57.818;15.224;2023-09-07T08:54:32;18.40;99.90
16160;DHT22;8185;57.818;15.224;2023-09-07T08:57:02;18.60;99.90
16160;DHT22;8185;57.818;15.224;2023-09-07T09:01:58;18.80;99.90
16160;DHT22;8185;57.818;15.224;2023-09-07T09:04:25;18.90;99.90
16160;DHT22;8185;57.818;15.224;2023-09-07T09:06:53;19.00;99.90
16160;DHT22;8185;57.818;15.224;2023-09-07T09:09:25;18.90;99.90
16160;DHT22;8185;57.818;15.224;2023-09-07T09:11:53;19.00;99.90
16160;DHT22;8185;57.818;15.224;2023-09-07T09:14:20;19.20;99.90
16160;DHT22;8185;57.818;15.224;2023-09-07T09:16:49;19.30;99.90
16160;DHT22;8185;57.818;15.224;2023-09-07T09:19:17;19.10;99.90
16160;DHT22;8185;57.818;15.224;2023-09-07T09:21:45;19.30;99.90
16160;DHT22;8185;57.818;15.224;2023-09-07T09:24:12;19.30;99.90
16160;DHT22;8185;57.818;15.224;2023-09-07T09:26:42;19.10;99.90
16160;DHT22;8185;57.818;15.224;2023-09-07T09:29:10;18.90;99.90
16160;DHT22;8185;57.818;15.224;2023-09-07T09:31:38;19.00;99.90
16160;DHT22;8185;57.818;15.224;2023-09-07T09:34:05;19.10;99.90
16160;DHT22;8185;57.818;15.224;2023-09-07T09:36:35;19.30;99.90
16160;DHT22;8185;57.818;15.224;2023-09-07T09:39:03;19.60;99.90
16160;DHT22;8185;57.818;15.224;2023-09-07T09:41:32;19.80;99.90
16160;DHT22;8185;57.818;15.224;2023-09-07T09:44:03;19.90;99.90
16160;DHT22;8185;57.818;15.224;2023-09-07T09:46:32;20.40;99.90
16160;DHT22;8185;57.818;15.224;2023-09-07T09:49:00;20.60;99.90
16160;DHT22;8185;57.818;15.224;2023-09-07T09:51:30;21.30;99.90
16160;DHT22;8185;57.818;15.224;2023-09-07T09:53:59;21.90;99.90
16160;DHT22;8185;57.818;15.224;2023-09-07T09:56:27;21.80;99.90
16160;DHT22;8185;57.818;15.224;2023-09-07T09:58:54;22.30;99.90
16160;DHT22;8185;57.818;15.224;2023-09-07T10:01:24;23.00;99.90
16160;DHT22;8185;57.818;15.224;2023-09-07T10:03:52;23.50;99.90
16160;DHT22;8185;57.818;15.224;2023-09-07T10:06:24;23.80;99.90
16160;DHT22;8185;57.818;15.224;2023-09-07T10:08:58;23.90;99.90
16160;DHT22;8185;57.818;15.224;2023-09-07T10:11:30;24.40;99.90
16160;DHT22;8185;57.818;15.224;2023-09-07T10:13:58;24.70;99.90
16160;DHT22;8185;57.818;15.224;2023-09-07T10:16:27;24.40;99.90
16160;DHT22;8185;57.818;15.224;2023-09-07T10:18:54;25.10;99.90
16160;DHT22;8185;57.818;15.224;2023-09-07T10:21:24;24.90;99.90
16160;DHT22;8185;57.818;15.224;2023-09-07T10:23:52;23.90;99.90
16160;DHT22;8185;57.818;15.224;2023-09-07T10:26:20;23.60;99.90
16160;DHT22;8185;57.818;15.224;2023-09-07T10:28:59;23.70;99.90
16160;DHT22;8185;57.818;15.224;2023-09-07T10:31:31;24.50;99.90
16160;DHT22;8185;57.818;15.224;2023-09-07T10:34:08;24.30;99.90
16160;DHT22;8185;57.818;15.224;2023-09-07T10:41:42;23.30;99.90
16160;DHT22;8185;57.818;15.224;2023-09-07T10:44:10;23.80;99.90
16160;DHT22;8185;57.818;15.224;2023-09-07T10:46:40;23.20;99.90
16160;DHT22;8185;57.818;15.224;2023-09-07T10:49:08;22.90;99.90
16160;DHT22;8185;57.818;15.224;2023-09-07T10:51:44;22.50;99.90
16160;DHT22;8185;57.818;15.224;2023-09-07T14:12:19;30.20;99.90
16160;DHT22;8185;57.818;15.224;2023-09-07T14:14:46;27.30;99.90
16160;DHT22;8185;57.818;15.224;2023-09-07T14:17:13;27.90;99.90
16160;DHT22;8185;57.818;15.224;2023-09-07T14:19:40;27.70;99.90
16160;DHT22;8185;57.818;15.224;2023-09-07T14:22:07;27.80;99.90
16160;DHT22;8185;57.818;15.224;2023-09-07T14:24:36;27.50;99.90
16160;DHT22;8185;57.818;15.224;2023-09-07T14:27:04;26.90;99.90
16160;DHT22;8185;57.818;15.224;2023-09-07T14:29:32;27.00;99.90
16160;DHT22;8185;57.818;15.224;2023-09-07T14:31:59;27.30;99.90
16160;DHT22;8185;57.818;15.224;2023-09-07T14:34:26;27.50;99.90
16160;DHT22;8185;57.818;15.224;2023-09-07T14:36:53;27.70;99.90
16160;DHT22;8185;57.818;15.224;2023-09-07T14:39:21;27.90;99.90
16160;DHT22;8185;57.818;15.224;2023-09-07T14:41:51;27.90;99.90
16160;DHT22;8185;57.818;15.224;2023-09-07T14:44:19;27.50;99.90
16160;DHT22;8185;57.818;15.224;2023-09-07T14:46:47;28.30;99.90
16160;DHT22;8185;57.818;15.224;2023-09-07T14:49:16;28.10;99.90
16160;DHT22;8185;57.818;15.224;2023-09-07T14:51:44;29.00;99.90
16160;DHT22;8185;57.818;15.224;2023-09-07T14:54:11;29.40;99.90
16160;DHT22;8185;57.818;15.224;2023-09-07T14:56:39;29.50;99.90
16160;DHT22;8185;57.818;15.224;2023-09-07T14:59:07;29.20;99.90
16160;DHT22;8185;57.818;15.224;2023-09-07T15:01:36;28.70;99.90
16160;DHT22;8185;57.818;15.224;2023-09-07T15:04:04;29.30;99.90
16160;DHT22;8185;57.818;15.224;2023-09-07T15:06:31;29.70;99.90
16160;DHT22;8185;57.818;15.224;2023-09-07T15:08:59;30.40;99.90
16160;DHT22;8185;57.818;15.224;2023-09-07T15:11:26;29.50;99.90
16160;DHT22;8185;57.818;15.224;2023-09-07T15:13:54;29.00;99.90
16160;DHT22;8185;57.818;15.224;2023-09-07T15:16:22;29.40;99.90
16160;DHT22;8185;57.818;15.224;2023-09-07T15:18:50;29.00;99.90
16160;DHT22;8185;57.818;15.224;2023-09-07T15:21:20;28.60;99.90
16160;DHT22;8185;57.818;15.224;2023-09-07T15:23:47;28.00;99.90
16160;DHT22;8185;57.818;15.224;2023-09-07T15:26:15;27.90;99.90
16160;DHT22;8185;57.818;15.224;2023-09-07T15:28:42;28.50;99.90
16160;DHT22;8185;57.818;15.224;2023-09-07T15:31:09;27.90;99.90
16160;DHT22;8185;57.818;15.224;2023-09-07T15:33:38;28.10;99.90
16160;DHT22;8185;57.818;15.224;2023-09-07T15:36:05;27.60;99.90
16160;DHT22;8185;57.818;15.224;2023-09-07T15:38:34;27.00;99.90
16160;DHT22;8185;57.818;15.224;2023-09-07T15:41:02;27.30;99.90
16160;DHT22;8185;57.818;15.224;2023-09-07T15:43:31;27.40;99.90
16160;DHT22;8185;57.818;15.224;2023-09-07T15:45:59;27.20;99.90
16160;DHT22;8185;57.818;15.224;2023-09-07T15:48:26;27.00;99.90
16160;DHT22;8185;57.818;15.224;2023-09-07T15:50:55;27.90;99.90
16160;DHT22;8185;57.818;15.224;2023-09-07T15:53:22;27.60;99.90
16160;DHT22;8185;57.818;15.224;2023-09-07T15:55:49;28.00;99.90
16160;DHT22;8185;57.818;15.224;2023-09-07T15:58:17;27.50;99.90
16160;DHT22;8185;57.818;15.224;2023-09-07T16:00:44;27.80;99.90
16160;DHT22;8185;57.818;15.224;2023-09-07T16:03:11;27.50;99.90
16160;DHT22;8185;57.818;15.224;2023-09-07T16:05:40;27.10;99.90
16160;DHT22;8185;57.818;15.224;2023-09-07T16:08:09;26.50;99.90
16160;DHT22;8185;57.818;15.224;2023-09-07T16:10:36;26.80;99.90
16160;DHT22;8185;57.818;15.224;2023-09-07T16:13:05;26.70;99.90
16160;DHT22;8185;57.818;15.224;2023-09-07T16:15:32;26.60;99.90
16160;DHT22;8185;57.818;15.224;2023-09-07T16:18:00;26.60;99.90
16160;DHT22;8185;57.818;15.224;2023-09-07T16:20:27;27.10;99.90
16160;DHT22;8185;57.818;15.224;2023-09-07T16:22:54;27.70;99.90
16160;DHT22;8185;57.818;15.224;2023-09-07T16:25:23;27.50;99.90
16160;DHT22;8185;57.818;15.224;2023-09-07T16:27:50;27.60;99.90
16160;DHT22;8185;57.818;15.224;2023-09-07T16:30:18;27.20;99.90
16160;DHT22;8185;57.818;15.224;2023-09-07T16:32:45;27.50;99.90
16160;DHT22;8185;57.818;15.224;2023-09-07T16:35:12;27.30;99.90
16160;DHT22;8185;57.818;15.224;2023-09-07T16:37:40;26.90;99.90
16160;DHT22;8185;57.818;15.224;2023-09-07T16:40:08;27.20;99.90
16160;DHT22;8185;57.818;15.224;2023-09-07T16:42:38;26.80;99.90
16160;DHT22;8185;57.818;15.224;2023-09-07T16:45:07;26.50;99.90
16160;DHT22;8185;57.818;15.224;2023-09-07T16:47:34;26.10;99.90
16160;DHT22;8185;57.818;15.224;2023-09-07T16:50:01;25.60;99.90
16160;DHT22;8185;57.818;15.224;2023-09-07T16:52:28;25.70;99.90
16160;DHT22;8185;57.818;15.224;2023-09-07T16:54:57;25.00;99.90
16160;DHT22;8185;57.818;15.224;2023-09-07T16:57:24;24.60;99.90
16160;DHT22;8185;57.818;15.224;2023-09-07T16:59:55;24.00;99.90
16160;DHT22;8185;57.818;15.224;2023-09-07T17:02:22;24.10;99.90
16160;DHT22;8185;57.818;15.224;2023-09-07T17:04:49;23.30;99.90
16160;DHT22;8185;57.818;15.224;2023-09-07T17:07:16;22.90;99.90
16160;DHT22;8185;57.818;15.224;2023-09-07T17:09:44;22.50;99.90
16160;DHT22;8185;57.818;15.224;2023-09-07T17:12:11;22.20;99.90
16160;DHT22;8185;57.818;15.224;2023-09-07T17:14:38;22.00;99.90
16160;DHT22;8185;57.818;15.224;2023-09-07T17:17:09;21.80;99.90
16160;DHT22;8185;57.818;15.224;2023-09-07T17:19:36;21.60;99.90
16160;DHT22;8185;57.818;15.224;2023-09-07T17:22:04;21.10;99.90
16160;DHT22;8185;57.818;15.224;2023-09-07T17:24:31;20.80;99.90
16160;DHT22;8185;57.818;15.224;2023-09-07T17:26:58;20.60;99.90
16160;DHT22;8185;57.818;15.224;2023-09-07T17:29:25;20.50;99.90
16160;DHT22;8185;57.818;15.224;2023-09-07T17:31:52;20.40;99.90
16160;DHT22;8185;57.818;15.224;2023-09-07T17:34:23;20.40;99.90
16160;DHT22;8185;57.818;15.224;2023-09-07T17:36:50;20.30;99.90
16160;DHT22;8185;57.818;15.224;2023-09-07T17:39:17;20.10;99.90
16160;DHT22;8185;57.818;15.224;2023-09-07T17:41:44;19.90;99.90
16160;DHT22;8185;57.818;15.224;2023-09-07T17:44:12;19.60;99.90
16160;DHT22;8185;57.818;15.224;2023-09-07T17:46:39;19.20;99.90
16160;DHT22;8185;57.818;15.224;2023-09-07T17:49:06;19.00;99.90
16160;DHT22;8185;57.818;15.224;2023-09-07T17:51:36;18.80;99.90
16160;DHT22;8185;57.818;15.224;2023-09-07T17:54:03;18.60;99.90
16160;DHT22;8185;57.818;15.224;2023-09-07T17:56:30;18.50;99.90
16160;DHT22;8185;57.818;15.224;2023-09-07T17:58:58;18.30;99.90
16160;DHT22;8185;57.818;15.224;2023-09-07T18:01:25;18.00;99.90
16160;DHT22;8185;57.818;15.224;2023-09-07T18:03:52;17.90;99.90
16160;DHT22;8185;57.818;15.224;2023-09-07T18:06:19;17.80;99.90
16160;DHT22;8185;57.818;15.224;2023-09-07T18:08:48;17.70;99.90
16160;DHT22;8185;57.818;15.224;2023-09-07T18:11:16;17.60;99.90
16160;DHT22;8185;57.818;15.224;2023-09-07T18:13:44;17.50;99.90
16160;DHT22;8185;57.818;15.224;2023-09-07T18:16:12;17.40;99.90
16160;DHT22;8185;57.818;15.224;2023-09-07T18:18:39;17.30;99.90
16160;DHT22;8185;57.818;15.224;2023-09-07T18:21:06;17.20;99.90
16160;DHT22;8185;57.818;15.224;2023-09-07T18:23:34;17.10;99.90
16160;DHT22;8185;57.818;15.224;2023-09-07T18:26:03;17.10;99.90
16160;DHT22;8185;57.818;15.224;2023-09-07T18:28:31;17.00;99.90
16160;DHT22;8185;57.818;15.224;2023-09-07T18:30:59;17.00;99.90
16160;DHT22;8185;57.818;15.224;2023-09-07T18:33:26;17.10;99.90
16160;DHT22;8185;57.818;15.224;2023-09-07T18:36:01;17.10;99.90
16160;DHT22;8185;57.818;15.224;2023-09-07T18:38:28;17.10;99.90
16160;DHT22;8185;57.818;15.224;2023-09-07T18:40:57;17.00;99.90
16160;DHT22;8185;57.818;15.224;2023-09-07T18:43:26;17.00;99.90
16160;DHT22;8185;57.818;15.224;2023-09-07T18:45:53;16.90;99.90
16160;DHT22;8185;57.818;15.224;2023-09-07T18:48:21;16.90;99.90
16160;DHT22;8185;57.818;15.224;2023-09-07T18:50:48;16.80;99.90
16160;DHT22;8185;57.818;15.224;2023-09-07T18:53:15;16.70;99.90
16160;DHT22;8185;57.818;15.224;2023-09-07T18:55:43;16.60;99.90
16160;DHT22;8185;57.818;15.224;2023-09-07T18:58:10;16.70;99.90
16160;DHT22;8185;57.818;15.224;2023-09-07T19:00:39;16.60;99.90